Monday, December 18, 2017, 2:22 PM GMT
Back to Local

CWIS, Charlevoix CS , Que.

Location: , , Canada Lat: 47.283
Local Time: 2:22 PM GMT (14:22 GMT) Lon: -70.633
Time Zone: GMT Elev: 2358 ft

Show me the last for .
Show Decoded

2017-12-18 14:00 METAR CWIS 181400Z AUTO 21004KT M14/M19 RMK AO1 SOG 46 5005 PK WND 23085/1312
                 SLP168 T11411194 =
2017-12-18 13:00 METAR CWIS 181300Z AUTO 20005KT M16/M19 RMK AO1 SOG 46 8011 SLP169 T11551190 =
2017-12-18 12:00 METAR CWIS 181200Z AUTO 18003KT M18/M19 RMK AO1 SOG 46 6016 SLP175 T11761193 =
2017-12-18 11:00 METAR CWIS 181100Z AUTO 20003KT M17/M19 RMK AO1 SOG 46 6021 SLP176 T11661187 =
2017-12-18 10:00 METAR CWIS 181000Z AUTO 19002KT M18/M20 RMK AO1 SOG 46 8017 SLP180 T11811199 =
2017-12-18 09:00 METAR CWIS 180900Z AUTO 21003KT M19/M21 RMK AO1 SOG 46 8006 SLP190 T11871209 =
2017-12-18 08:00 METAR CWIS 180800Z AUTO 19003KT M21/M23 RMK AO1 SOG 46 6002 SLP196 T12071226 =
2017-12-18 07:00 METAR CWIS 180700Z AUTO 16002KT M23/M25 RMK AO1 SOG 46 5008 SLP198 T12291248 =
2017-12-18 06:00 METAR CWIS 180600Z AUTO 18003KT M24/M26 RMK AO1 SOG 46 8011 SLP198 T12371257 =
2017-12-18 05:00 METAR CWIS 180500Z AUTO 14006G16KT M25/M27 RMK AO1 SOG 46 8011 SLP203 T12451266
                 =
2017-12-18 04:00 METAR CWIS 180400Z AUTO 12004G17KT M24/M26 RMK AO1 SOG 46 7007 PK WND 16017/0350
                 SLP211 T12401260 =
2017-12-18 03:00 METAR CWIS 180300Z AUTO 05003KT M24/M26 RMK AO1 SOG 46 8004 SLP213 T12371257 =
2017-12-18 02:00 METAR CWIS 180200Z AUTO 05004G15KT M24/M26 RMK AO1 SOG 46 7003 SLP218 T12361256
                 =
2017-12-18 01:00 METAR CWIS 180100Z AUTO 21007KT M23/M26 RMK AO1 SOG 46 1001 SLP223 T12251255 =
2017-12-18 00:00 METAR CWIS 180000Z AUTO 05010G15KT M23/M25 RMK AO1 SOG 46 0004 SLP224 T12331252
                 =
2017-12-17 23:00 METAR CWIS 172300Z AUTO 03003KT M23/M25 RMK AO1 SOG 46 1009 SLP224 T12281248 =
2017-12-17 22:00 METAR CWIS 172200Z AUTO 26006KT M21/M22 RMK AO1 SOG 47 3006 SLP216 T12071223 =
2017-12-17 21:00 METAR CWIS 172100Z AUTO 21003KT M20/M21 RMK AO1 SOG 47 3001 PK WND 22075/2001
                 SLP213 T11951212 =
2017-12-17 20:00 METAR CWIS 172000Z AUTO 26016G91KT M17/M19 RMK AO1 SOG 47 0000 PK WND 26091/1955
                 SLP204 T11661193 =
2017-12-17 19:00 METAR CWIS 171900Z AUTO 32009G24KT M15/M22 RMK AO1 SOG 47 6004 SLP203 T11541217
                 =
2017-12-17 18:00 METAR CWIS 171800Z AUTO 32011G35KT M16/M22 RMK AO1 SOG 47 5003 SLP202 T11581223
                 =
2017-12-17 17:00 METAR CWIS 171700Z AUTO 28048KT M16/M22 RMK AO1 SOG 47 8005 SLP202 T11551221 =
2017-12-17 16:00 METAR CWIS 171600Z AUTO 33006G30KT M18/M22 RMK AO1 SOG 47 1003 PK WND 01093/1538
                 SLP207 T11781218 =
2017-12-17 15:00 METAR CWIS 171500Z AUTO 36007G20KT M18/M22 RMK AO1 SOG 47 1008 PK WND 02024/1441
                 SLP207 T11831223 =

Support USWX by starting your Amazon purchase here.